Strona główna
METAR-TAF:

METAR-TAF

Lotnisko :

Port lotniczy Jersey

Jersey,

Szerokość geograficzna: 49-13N, Długość geograficzna: 002-12W, wysokość: 84 m

Aktualna obserwacja pogody

Raport powstał 32 minut temu, godzina 08:20 UTC
Wiatr 7 kt od południe
Temperatura 18°C
Wilgotność 83%
Ciśnienie 1022 hPa
Widzialność 10 km lub więcej
Mało chmury na wysokości 600 ft

METAR: EGJJ 210820Z 19007KT 9999 FEW006 18/15 Q1022

czas: 09:52 (08:52 UTC)

Prognoza

Raport powstał 56 minut temu, godzina 07:56 UTC
Prognoza ważna od 21 godzina 09 UTC do 21 godzina 18 UTC
Wiatr 6 kt od południowo-południowy zachód
Widzialność 10 km lub więcej
Mało chmury na wysokości 700 ft

TAF: EGJJ 210756Z 2109/2118 21006KT 9999 FEW007

Obserwacja i prognoza pogody dla ponad 4000 lotnisk (raport METAR i TAF).

Dostępne stacje oznaczono żółtymi i czerwonymi punktami na mapie.

Najedź kursorem aby zobaczyć nazwę stacji.

Kliknij aby zobaczyć obserwacje i prognozy pogody.

Aby zmienić mapę: kliknij na zielony przycisk z czarnym krzyżykiem, aby powiększyć; na zielony przycisk z myślnikiem, aby pomniejszyć; na zielone strzałki, aby przejść do map sąsiednich.


METAR-TAF: